Time;durP1;ratioP1;P1;durP2;ratioP2;P2;SDS_P1;SDS_P2;PMS_P1;PMS_P2;Temp;Humidity;BMP_temperature;BMP_pressure;BME280_temperature;BME280_humidity;BME280_pressure;Samples;Min_cycle;Max_cycle;Signal;HPM_P1;HPM_P2
2023/04/27 00:01:45;;;;;;;20.92;10.90;;;;;;;-144.87;100.00;61487.56;4927750;29;20035;-81
2023/04/27 00:04:13;;;;;;;19.52;10.65;;;;;;;-144.87;100.00;61487.56;4915160;29;20127;-81
2023/04/27 00:06:39;;;;;;;25.40;12.10;;;;;;;-144.87;100.00;61487.56;4936466;29;20506;-81
2023/04/27 00:09:05;;;;;;;23.77;11.30;;;;;;;-144.87;100.00;61487.56;4907328;29;20103;-81
2023/04/27 00:11:31;;;;;;;22.35;10.77;;;;;;;-144.87;100.00;61487.56;4915207;29;20067;-87
2023/04/27 00:13:58;;;;;;;25.88;11.63;;;;;;;-144.87;100.00;61487.56;4925807;29;20546;-81
2023/04/27 00:16:24;;;;;;;24.58;11.73;;;;;;;-144.87;100.00;61487.56;4920916;29;20064;-80
2023/04/27 00:18:52;;;;;;;25.23;11.82;;;;;;;-144.87;100.00;61487.56;4930289;29;20128;-81
2023/04/27 00:21:19;;;;;;;23.58;11.45;;;;;;;-144.87;100.00;61487.56;4918876;29;20134;-82
2023/04/27 00:23:45;;;;;;;24.25;11.45;;;;;;;-144.87;100.00;61487.56;4937362;29;20095;-81
2023/04/27 00:26:11;;;;;;;24.98;11.95;;;;;;;-144.87;100.00;61487.56;4932173;29;20086;-82
2023/04/27 00:28:38;;;;;;;26.00;12.75;;;;;;;-144.87;100.00;61487.56;4915206;29;20055;-81
2023/04/27 00:31:05;;;;;;;28.48;12.73;;;;;;;-144.87;100.00;61487.56;4903032;29;20055;-81
2023/04/27 00:33:31;;;;;;;30.50;13.52;;;;;;;-144.87;100.00;61487.56;4925998;29;20043;-80
2023/04/27 00:36:01;;;;;;;27.67;13.82;;;;;;;-144.87;100.00;61487.56;4945637;29;20047;-82
2023/04/27 00:38:30;;;;;;;26.27;12.38;;;;;;;-144.87;100.00;61487.56;4915566;29;20480;-82
2023/04/27 00:41:02;;;;;;;25.92;13.15;;;;;;;-144.87;100.00;61487.56;4930983;29;20426;-82
2023/04/27 00:43:28;;;;;;;25.38;11.75;;;;;;;-144.87;100.00;61487.56;4906461;29;20125;-86
2023/04/27 00:45:55;;;;;;;24.23;10.57;;;;;;;-144.87;100.00;61487.56;4937824;29;20469;-80
2023/04/27 00:48:21;;;;;;;21.42;11.48;;;;;;;-144.87;100.00;61487.56;4933586;29;20067;-81
2023/04/27 00:50:47;;;;;;;19.17;10.45;;;;;;;-144.87;100.00;61487.56;4918675;29;20138;-81
2023/04/27 00:53:14;;;;;;;20.23;10.73;;;;;;;-144.87;100.00;61487.56;4936446;29;20035;-81
2023/04/27 00:55:41;;;;;;;22.27;10.07;;;;;;;-144.87;100.00;61487.56;4919689;29;20043;-82
2023/04/27 00:58:08;;;;;;;20.38;10.13;;;;;;;-144.87;100.00;61487.56;4935616;29;20449;-82
2023/04/27 01:00:35;;;;;;;23.92;10.73;;;;;;;-144.87;100.00;61487.56;4929943;29;20036;-81
2023/04/27 01:03:03;;;;;;;25.48;11.88;;;;;;;-144.87;100.00;61487.56;4931721;29;20446;-82
2023/04/27 01:05:29;;;;;;;24.25;10.95;;;;;;;-144.87;100.00;61487.56;4928313;29;20040;-81
2023/04/27 01:07:56;;;;;;;23.27;11.13;;;;;;;-144.87;100.00;61487.56;4916257;29;20035;-81
2023/04/27 01:10:22;;;;;;;28.83;10.98;;;;;;;-144.87;100.00;61487.56;4923141;29;20039;-80
2023/04/27 01:12:49;;;;;;;24.33;11.38;;;;;;;-144.87;100.00;61487.56;4918144;29;20059;-81
2023/04/27 01:15:15;;;;;;;21.92;11.45;;;;;;;-144.87;100.00;61487.56;4921186;29;20046;-81
2023/04/27 01:17:42;;;;;;;22.92;11.20;;;;;;;-144.87;100.00;61487.56;4936009;29;20044;-81
2023/04/27 01:20:09;;;;;;;19.80;10.38;;;;;;;-144.87;100.00;61487.56;4933767;29;20033;-81
2023/04/27 01:22:35;;;;;;;24.35;10.68;;;;;;;-144.87;100.00;61487.56;4934790;29;20032;-82
2023/04/27 01:25:02;;;;;;;30.33;9.93;;;;;;;-144.87;100.00;61487.56;4935588;29;20087;-81
2023/04/27 01:27:30;;;;;;;23.27;10.20;;;;;;;-144.87;100.00;61487.56;4934511;29;20039;-85
2023/04/27 01:29:56;;;;;;;30.63;10.75;;;;;;;-144.87;100.00;61487.56;4920585;29;20517;-81
2023/04/27 01:32:23;;;;;;;24.23;11.48;;;;;;;-144.87;100.00;61487.56;4934411;29;20027;-81
2023/04/27 01:34:51;;;;;;;22.17;10.57;;;;;;;-144.87;100.00;61487.56;4915341;29;20040;-81
2023/04/27 01:37:18;;;;;;;19.65;9.75;;;;;;;-144.87;100.00;61487.56;4931227;29;20495;-81
2023/04/27 01:39:44;;;;;;;28.00;11.48;;;;;;;-144.87;100.00;61487.56;4903408;29;20122;-81
2023/04/27 01:42:10;;;;;;;26.77;12.13;;;;;;;-144.87;100.00;61487.56;4918554;29;20453;-82
2023/04/27 01:44:39;;;;;;;24.30;12.07;;;;;;;-144.87;100.00;61487.56;4935210;29;20047;-82
2023/04/27 01:47:05;;;;;;;25.23;12.52;;;;;;;-144.87;100.00;61487.56;4940853;29;20047;-81
2023/04/27 01:49:33;;;;;;;32.75;12.73;;;;;;;-144.87;100.00;61487.56;4935777;29;20741;-82
2023/04/27 01:51:59;;;;;;;28.08;12.40;;;;;;;-144.87;100.00;61487.56;4934391;29;20067;-81
2023/04/27 01:54:26;;;;;;;28.55;12.38;;;;;;;-144.87;100.00;61487.56;4951824;29;20520;-81
2023/04/27 01:56:52;;;;;;;37.47;13.63;;;;;;;-144.87;100.00;61487.56;4906656;29;20051;-81
2023/04/27 01:59:18;;;;;;;32.10;13.05;;;;;;;-144.87;100.00;61487.56;4916222;29;20099;-81
2023/04/27 02:01:45;;;;;;;30.17;13.32;;;;;;;-144.87;100.00;61487.56;4917509;29;20055;-81
2023/04/27 02:04:11;;;;;;;30.65;13.27;;;;;;;-144.87;100.00;61487.56;4903861;29;20417;-81
2023/04/27 02:06:37;;;;;;;29.73;12.70;;;;;;;-144.87;100.00;61487.56;4932789;29;20070;-82
2023/04/27 02:09:06;;;;;;;24.70;12.00;;;;;;;-144.87;100.00;61487.56;4940832;29;20159;-81
2023/04/27 02:11:32;;;;;;;30.10;13.00;;;;;;;-144.87;100.00;61487.56;4911439;29;20039;-79
2023/04/27 02:13:58;;;;;;;28.48;13.40;;;;;;;-144.87;100.00;61487.56;4933589;29;20114;-79
2023/04/27 02:16:30;;;;;;;33.53;12.73;;;;;;;-144.87;100.00;61487.56;4927304;29;20056;-81
2023/04/27 02:18:57;;;;;;;30.20;12.55;;;;;;;-144.87;100.00;61487.56;4916980;29;20040;-80
2023/04/27 02:21:24;;;;;;;28.92;12.40;;;;;;;-144.87;100.00;61487.56;4913390;29;20053;-80
2023/04/27 02:23:50;;;;;;;29.92;12.40;;;;;;;-144.87;100.00;61487.56;4917901;29;20040;-81
2023/04/27 02:26:22;;;;;;;27.25;12.38;;;;;;;-144.87;100.00;61487.56;4934873;29;20028;-81
2023/04/27 02:28:49;;;;;;;23.92;12.00;;;;;;;-144.87;100.00;61487.56;4892429;29;20123;-82
2023/04/27 02:31:16;;;;;;;31.13;12.27;;;;;;;-144.87;100.00;61487.56;4898709;29;20047;-82
2023/04/27 02:33:42;;;;;;;30.42;12.57;;;;;;;-144.87;100.00;61487.56;4931690;29;20036;-80
2023/04/27 02:36:08;;;;;;;34.20;14.55;;;;;;;-144.87;100.00;61487.56;4915035;29;20047;-82
2023/04/27 02:38:35;;;;;;;32.63;12.57;;;;;;;-144.87;100.00;61487.56;4916564;29;20036;-83
2023/04/27 02:41:02;;;;;;;28.58;11.65;;;;;;;-144.87;100.00;61487.56;4933328;29;20040;-82
2023/04/27 02:43:28;;;;;;;29.95;12.20;;;;;;;-144.87;100.00;61487.56;4932968;29;20039;-81
2023/04/27 02:45:55;;;;;;;34.05;13.35;;;;;;;-144.87;100.00;61487.56;4934087;29;20401;-81
2023/04/27 02:48:21;;;;;;;29.85;12.55;;;;;;;-144.87;100.00;61487.56;4939128;29;20490;-81
2023/04/27 02:50:47;;;;;;;29.90;13.23;;;;;;;-144.87;100.00;61487.56;4935717;29;20058;-81
2023/04/27 02:53:14;;;;;;;31.20;11.90;;;;;;;-144.87;100.00;61487.56;4935737;29;20039;-82
2023/04/27 02:55:47;;;;;;;29.95;12.57;;;;;;;-144.87;100.00;61487.56;4918642;29;20039;-81
2023/04/27 02:58:13;;;;;;;29.73;12.70;;;;;;;-144.87;100.00;61487.56;4918196;29;20039;-82
2023/04/27 03:00:40;;;;;;;27.33;12.10;;;;;;;-144.87;100.00;61487.56;4932661;29;20125;-83
2023/04/27 03:03:06;;;;;;;28.70;12.10;;;;;;;-144.87;100.00;61487.56;4918934;29;20066;-81
2023/04/27 03:05:33;;;;;;;25.90;11.80;;;;;;;-144.87;100.00;61487.56;4944668;28;20046;-81
2023/04/27 03:07:59;;;;;;;30.35;13.10;;;;;;;-144.87;100.00;61487.56;4948983;28;20497;-83
2023/04/27 03:10:26;;;;;;;28.67;11.85;;;;;;;-144.87;100.00;61487.56;4914729;29;20038;-87
2023/04/27 03:12:52;;;;;;;30.33;12.63;;;;;;;-144.87;100.00;61487.56;4920211;28;20853;-81
2023/04/27 03:15:21;;;;;;;32.80;13.50;;;;;;;-144.87;100.00;61487.56;4938684;29;20039;-81
2023/04/27 03:17:47;;;;;;;30.60;12.48;;;;;;;-144.87;100.00;61487.56;4933674;28;20043;-81
2023/04/27 03:20:14;;;;;;;29.05;12.20;;;;;;;-144.87;100.00;61487.56;4950238;28;20091;-81
2023/04/27 03:22:44;;;;;;;31.05;12.60;;;;;;;-144.87;100.00;61487.56;4931003;28;20043;-80
2023/04/27 03:25:10;;;;;;;30.02;12.82;;;;;;;-144.87;100.00;61487.56;4952121;29;20119;-82
2023/04/27 03:27:38;;;;;;;26.02;11.98;;;;;;;-144.87;100.00;61487.56;4944795;28;20440;-80
2023/04/27 03:30:05;;;;;;;30.35;12.88;;;;;;;-144.87;100.00;61487.56;4947355;28;20039;-81
2023/04/27 03:32:31;;;;;;;32.42;13.10;;;;;;;-144.87;100.00;61487.56;4916321;29;20516;-88
2023/04/27 03:35:01;;;;;;;34.53;13.45;;;;;;;-144.87;100.00;61487.56;4918927;29;20051;-82
2023/04/27 03:37:28;;;;;;;31.88;12.45;;;;;;;-144.87;100.00;61487.56;4934356;29;20564;-81
2023/04/27 03:39:56;;;;;;;32.50;13.45;;;;;;;-144.87;100.00;61487.56;4919291;29;20042;-81
2023/04/27 03:42:22;;;;;;;33.90;13.45;;;;;;;-144.87;100.00;61487.56;4902684;29;20578;-82
2023/04/27 03:44:49;;;;;;;34.25;13.52;;;;;;;-144.87;100.00;61487.56;4917334;29;20050;-82
2023/04/27 03:47:16;;;;;;;39.70;14.00;;;;;;;-144.87;100.00;61487.56;4901027;29;20047;-81
2023/04/27 03:49:42;;;;;;;39.63;14.05;;;;;;;-144.87;100.00;61487.56;4933510;29;20184;-82
2023/04/27 03:52:08;;;;;;;35.47;14.70;;;;;;;-144.87;100.00;61487.56;4934967;29;20043;-82
2023/04/27 03:54:35;;;;;;;38.50;14.55;;;;;;;-144.87;100.00;61487.56;4935311;29;20031;-83
2023/04/27 03:57:03;;;;;;;38.25;14.43;;;;;;;-144.87;100.00;61487.56;4935597;29;20047;-81
2023/04/27 03:59:29;;;;;;;35.58;14.32;;;;;;;-144.87;100.00;61487.56;4935575;29;20046;-80
2023/04/27 04:01:57;;;;;;;40.85;15.88;;;;;;;-144.87;100.00;61487.56;4915435;29;20054;-81
2023/04/27 04:04:23;;;;;;;44.92;15.70;;;;;;;-144.87;100.00;61487.56;4916918;29;20046;-81
2023/04/27 04:06:50;;;;;;;41.35;15.85;;;;;;;-144.87;100.00;61487.56;4932406;29;20038;-82
2023/04/27 04:09:16;;;;;;;35.17;13.45;;;;;;;-144.87;100.00;61487.56;4932196;29;20039;-81
2023/04/27 04:11:43;;;;;;;37.92;15.70;;;;;;;-144.87;100.00;61487.56;4941071;28;20057;-81
2023/04/27 04:14:12;;;;;;;40.17;14.18;;;;;;;-144.87;100.00;61487.56;4951194;29;20093;-80
2023/04/27 04:16:39;;;;;;;38.75;14.35;;;;;;;-144.87;100.00;61487.56;4951053;29;20047;-80
2023/04/27 04:19:05;;;;;;;38.28;15.23;;;;;;;-144.87;100.00;61487.56;4935489;29;20523;-81
2023/04/27 04:21:33;;;;;;;35.78;15.10;;;;;;;-144.87;100.00;61487.56;4933864;29;20055;-83
2023/04/27 04:23:59;;;;;;;40.33;15.75;;;;;;;-144.87;100.00;61487.56;4935017;29;20047;-81
2023/04/27 04:26:26;;;;;;;36.67;15.23;;;;;;;-144.87;100.00;61487.56;4919720;29;20506;-82
2023/04/27 04:28:52;;;;;;;37.55;15.75;;;;;;;-144.87;100.00;61487.56;4919941;29;20051;-81
2023/04/27 04:31:20;;;;;;;46.63;17.17;;;;;;;-144.87;100.00;61487.56;4931590;29;20031;-80
2023/04/27 04:33:46;;;;;;;46.90;16.48;;;;;;;-144.87;100.00;61487.56;4916851;29;20043;-81
2023/04/27 04:36:14;;;;;;;42.03;16.45;;;;;;;-144.87;100.00;61487.56;4905335;29;20161;-81
2023/04/27 04:38:41;;;;;;;47.45;18.08;;;;;;;-144.87;100.00;61487.56;4933844;29;20047;-80
2023/04/27 04:41:07;;;;;;;57.83;19.40;;;;;;;-144.87;100.00;61487.56;4921190;29;20059;-81
2023/04/27 04:43:33;;;;;;;45.42;18.80;;;;;;;-144.87;100.00;61487.56;4935834;29;20493;-82
2023/04/27 04:46:03;;;;;;;49.90;18.90;;;;;;;-144.87;100.00;61487.56;4925132;29;20035;-81
2023/04/27 04:48:29;;;;;;;50.75;19.58;;;;;;;-144.87;100.00;61487.56;4952294;29;20145;-88
2023/04/27 04:50:56;;;;;;;47.33;19.52;;;;;;;-144.87;100.00;61487.56;4951437;29;20081;-81
2023/04/27 04:53:22;;;;;;;65.93;22.23;;;;;;;-144.87;100.00;61487.56;4934521;29;20035;-81
2023/04/27 04:55:49;;;;;;;48.92;18.33;;;;;;;-144.87;100.00;61487.56;4934690;29;20031;-81
2023/04/27 04:58:15;;;;;;;37.15;16.35;;;;;;;-144.87;100.00;61487.56;4934394;29;20042;-80
2023/04/27 05:00:41;;;;;;;41.17;17.98;;;;;;;-144.87;100.00;61487.56;4915278;29;20505;-81
2023/04/27 05:03:08;;;;;;;30.30;15.95;;;;;;;-144.87;100.00;61487.56;4918050;29;20045;-82
2023/04/27 05:05:34;;;;;;;37.10;17.17;;;;;;;-144.87;100.00;61487.56;4935070;29;20370;-84
2023/04/27 05:08:00;;;;;;;31.10;14.93;;;;;;;-144.87;100.00;61487.56;4918943;29;20143;-81
2023/04/27 05:10:30;;;;;;;36.45;16.42;;;;;;;-144.87;100.00;61487.56;4919662;29;20078;-81
2023/04/27 05:12:56;;;;;;;32.75;14.88;;;;;;;-144.87;100.00;61487.56;4915640;29;20091;-80
2023/04/27 05:15:23;;;;;;;25.50;13.68;;;;;;;-144.87;100.00;61487.56;4919170;29;20091;-82
2023/04/27 05:17:49;;;;;;;21.15;12.90;;;;;;;-144.87;100.00;61487.56;4915686;29;20040;-81
2023/04/27 05:20:15;;;;;;;32.00;13.82;;;;;;;-144.87;100.00;61487.56;4917481;29;20103;-80
2023/04/27 05:22:43;;;;;;;24.50;11.05;;;;;;;-144.87;100.00;61487.56;4917916;29;20126;-81
2023/04/27 05:25:10;;;;;;;25.38;11.38;;;;;;;-144.87;100.00;61487.56;4934619;29;20456;-80
2023/04/27 05:27:36;;;;;;;19.13;9.80;;;;;;;-144.87;100.00;61487.56;4934805;29;20416;-83
2023/04/27 05:30:02;;;;;;;14.88;8.98;;;;;;;-144.87;100.00;61487.56;4908685;29;20040;-80
2023/04/27 05:32:29;;;;;;;19.33;10.23;;;;;;;-144.87;100.00;61487.56;4946320;28;20484;-79
2023/04/27 05:34:55;;;;;;;18.40;8.32;;;;;;;-144.87;100.00;61487.56;4938111;29;20035;-80
2023/04/27 05:37:21;;;;;;;18.50;8.35;;;;;;;-144.87;100.00;61487.56;4938243;29;20035;-80
2023/04/27 05:39:48;;;;;;;15.15;9.43;;;;;;;-144.87;100.00;61487.56;4937168;29;20043;-79
2023/04/27 05:42:14;;;;;;;15.95;7.82;;;;;;;-144.87;100.00;61487.56;4935812;29;20123;-80
2023/04/27 05:44:40;;;;;;;13.93;8.10;;;;;;;-144.87;100.00;61487.56;4937604;28;20047;-81
2023/04/27 05:47:06;;;;;;;15.43;7.97;;;;;;;-144.87;100.00;61487.56;4936589;29;20051;-80
2023/04/27 05:49:33;;;;;;;17.02;7.90;;;;;;;-144.87;100.00;61487.56;4934392;29;20130;-80
2023/04/27 05:51:59;;;;;;;12.75;7.75;;;;;;;-144.87;100.00;61487.56;4922638;29;20101;-80
2023/04/27 05:54:26;;;;;;;13.77;6.93;;;;;;;-144.87;100.00;61487.56;4954490;29;20054;-80
2023/04/27 05:56:52;;;;;;;14.80;6.97;;;;;;;-144.87;100.00;61487.56;4922107;29;20039;-80
2023/04/27 05:59:19;;;;;;;12.68;6.72;;;;;;;-144.87;100.00;61487.56;4935864;29;20062;-80
2023/04/27 06:01:45;;;;;;;18.02;7.05;;;;;;;-144.87;100.00;61487.56;4936113;29;20256;-80
2023/04/27 06:04:11;;;;;;;16.85;6.22;;;;;;;-144.87;100.00;61487.56;4938142;29;20040;-80
2023/04/27 06:06:38;;;;;;;11.75;6.75;;;;;;;-144.87;100.00;61487.56;4918560;29;20043;-81
2023/04/27 06:09:04;;;;;;;16.48;6.82;;;;;;;-144.87;100.00;61487.56;4919714;29;20118;-80
2023/04/27 06:11:30;;;;;;;11.70;5.80;;;;;;;-144.87;100.00;61487.56;4921213;29;20028;-80
2023/04/27 06:13:56;;;;;;;12.30;6.47;;;;;;;-144.87;100.00;61487.56;4936098;29;20047;-80
2023/04/27 06:16:23;;;;;;;18.63;7.15;;;;;;;-144.87;100.00;61487.56;4952441;29;20070;-80
2023/04/27 06:18:50;;;;;;;13.43;6.60;;;;;;;-144.87;100.00;61487.56;4921247;29;20036;-81
2023/04/27 06:21:16;;;;;;;12.48;6.18;;;;;;;-144.87;100.00;61487.56;4937236;29;20412;-80
2023/04/27 06:23:42;;;;;;;11.77;6.88;;;;;;;-144.87;100.00;61487.56;4920751;29;20465;-79
2023/04/27 06:26:08;;;;;;;9.63;5.38;;;;;;;-144.87;100.00;61487.56;4937496;29;20042;-80
2023/04/27 06:28:35;;;;;;;14.68;6.75;;;;;;;-144.87;100.00;61487.56;4901546;29;20047;-81
2023/04/27 06:31:01;;;;;;;11.90;6.95;;;;;;;-144.87;100.00;61487.56;4902434;29;20102;-80
2023/04/27 06:33:27;;;;;;;12.45;5.43;;;;;;;-144.87;100.00;61487.56;4918142;29;20055;-81
2023/04/27 06:35:54;;;;;;;14.13;7.82;;;;;;;-144.87;100.00;61487.56;4927744;29;20036;-81
2023/04/27 06:38:21;;;;;;;10.50;5.50;;;;;;;-144.87;100.00;61487.56;4937010;29;20039;-80
2023/04/27 06:40:50;;;;;;;13.15;5.68;;;;;;;-144.87;100.00;61487.56;4936988;29;20058;-81
2023/04/27 06:43:17;;;;;;;12.52;5.38;;;;;;;-144.87;100.00;61487.56;4936898;29;20484;-80
2023/04/27 06:45:43;;;;;;;9.90;5.00;;;;;;;-144.87;100.00;61487.56;4916469;29;20039;-80
2023/04/27 06:48:09;;;;;;;10.55;5.20;;;;;;;-144.87;100.00;61487.56;4947399;29;20106;-80
2023/04/27 06:50:36;;;;;;;9.60;5.10;;;;;;;-144.87;100.00;61487.56;4936574;29;20047;-81
2023/04/27 06:53:02;;;;;;;15.10;7.18;;;;;;;-144.87;100.00;61487.56;4917466;29;20068;-80
2023/04/27 06:55:28;;;;;;;10.77;5.20;;;;;;;-144.87;100.00;61487.56;4925138;29;20040;-80
2023/04/27 06:57:54;;;;;;;10.55;4.85;;;;;;;-144.87;100.00;61487.56;4912216;29;20058;-80
2023/04/27 07:00:21;;;;;;;12.90;6.00;;;;;;;-144.87;100.00;61487.56;4919742;29;20046;-79
2023/04/27 07:02:47;;;;;;;13.15;5.03;;;;;;;-144.87;100.00;61487.56;4936356;29;20081;-80
2023/04/27 07:05:13;;;;;;;10.60;4.40;;;;;;;-144.87;100.00;61487.56;4919880;29;20512;-80
2023/04/27 07:07:39;;;;;;;12.90;4.25;;;;;;;-144.87;100.00;61487.56;4925187;29;20046;-80
2023/04/27 07:10:06;;;;;;;14.40;3.70;;;;;;;-144.87;100.00;61487.56;4911427;29;20039;-80
2023/04/27 07:12:34;;;;;;;14.15;4.63;;;;;;;-144.87;100.00;61487.56;4936454;29;20050;-88
2023/04/27 07:15:03;;;;;;;10.52;4.50;;;;;;;-144.87;100.00;61487.56;4936599;29;20035;-80
2023/04/27 07:17:29;;;;;;;10.88;5.00;;;;;;;-144.87;100.00;61487.56;4921933;29;20416;-80
2023/04/27 07:19:55;;;;;;;11.60;4.88;;;;;;;-144.87;100.00;61487.56;4918294;29;20043;-80
2023/04/27 07:22:21;;;;;;;12.05;4.00;;;;;;;-144.87;100.00;61487.56;4932636;29;20277;-80
2023/04/27 07:24:48;;;;;;;8.10;4.03;;;;;;;-144.87;100.00;61487.56;4948205;29;20123;-80
2023/04/27 07:27:14;;;;;;;9.85;3.78;;;;;;;-144.87;100.00;61487.56;4902090;29;20053;-80
2023/04/27 07:29:41;;;;;;;9.63;4.00;;;;;;;-144.87;100.00;61487.56;4948746;29;20039;-80
2023/04/27 07:32:08;;;;;;;8.73;3.88;;;;;;;-144.87;100.00;61487.56;4937039;29;20488;-80
2023/04/27 07:34:34;;;;;;;6.97;3.50;;;;;;;-144.87;100.00;61487.56;4920028;29;20058;-81
2023/04/27 07:37:01;;;;;;;4.97;3.13;;;;;;;-144.87;100.00;61487.56;4936440;29;20114;-78
2023/04/27 07:39:28;;;;;;;11.65;3.88;;;;;;;-144.87;100.00;61487.56;4936307;29;20385;-79
2023/04/27 07:41:54;;;;;;;8.50;3.08;;;;;;;-144.87;100.00;61487.56;4953736;29;20486;-79
2023/04/27 07:44:20;;;;;;;12.57;3.72;;;;;;;-144.87;100.00;61487.56;4950320;29;20431;-79
2023/04/27 07:46:48;;;;;;;7.32;3.65;;;;;;;-144.87;100.00;61487.56;4934932;28;20142;-80
2023/04/27 07:49:15;;;;;;;8.32;3.70;;;;;;;-144.87;100.00;61487.56;4954749;28;20081;-78
2023/04/27 07:51:41;;;;;;;9.80;3.65;;;;;;;-144.87;100.00;61487.56;4920010;29;20078;-79
2023/04/27 07:54:10;;;;;;;10.52;4.10;;;;;;;-144.87;100.00;61487.56;4940525;29;20516;-80
2023/04/27 07:56:39;;;;;;;7.85;4.22;;;;;;;-144.87;100.00;61487.56;4930516;29;20040;-80
2023/04/27 07:59:05;;;;;;;6.28;3.90;;;;;;;-144.87;100.00;61487.56;4923731;29;20036;-79
2023/04/27 08:01:31;;;;;;;9.02;4.18;;;;;;;-144.87;100.00;61487.56;4931637;29;20453;-79
2023/04/27 08:03:58;;;;;;;7.88;4.15;;;;;;;-144.87;100.00;61487.56;4931670;29;20035;-80
2023/04/27 08:06:24;;;;;;;8.57;3.63;;;;;;;-144.87;100.00;61487.56;4913367;29;20514;-79
2023/04/27 08:08:50;;;;;;;7.60;4.38;;;;;;;-144.87;100.00;61487.56;4898364;29;20043;-79
2023/04/27 08:11:18;;;;;;;8.05;4.03;;;;;;;-144.87;100.00;61487.56;4913927;29;20054;-79
2023/04/27 08:13:44;;;;;;;12.05;4.88;;;;;;;-144.87;100.00;61487.56;4931617;29;20039;-79
2023/04/27 08:16:10;;;;;;;9.40;4.35;;;;;;;-144.87;100.00;61487.56;4913113;29;20164;-79
2023/04/27 08:18:37;;;;;;;6.07;3.83;;;;;;;-144.87;100.00;61487.56;4920271;29;20498;-80
2023/04/27 08:21:03;;;;;;;7.85;4.45;;;;;;;-144.87;100.00;61487.56;4945023;29;20039;-80
2023/04/27 08:23:31;;;;;;;9.45;4.13;;;;;;;-144.87;100.00;61487.56;4913269;29;20043;-78
2023/04/27 08:25:58;;;;;;;7.43;3.72;;;;;;;-144.87;100.00;61487.56;4926895;29;20038;-79
2023/04/27 08:28:24;;;;;;;10.48;3.70;;;;;;;-144.87;100.00;61487.56;4911484;29;20474;-80
2023/04/27 08:30:50;;;;;;;6.28;3.42;;;;;;;-144.87;100.00;61487.56;4928473;29;20158;-79
2023/04/27 08:33:17;;;;;;;7.38;3.50;;;;;;;-144.87;100.00;61487.56;4931443;29;20044;-79
2023/04/27 08:35:43;;;;;;;9.88;3.63;;;;;;;-144.87;100.00;61487.56;4922908;29;20039;-78
2023/04/27 08:38:10;;;;;;;9.95;3.92;;;;;;;-144.87;100.00;61487.56;4914834;29;20082;-79
2023/04/27 08:40:40;;;;;;;7.97;3.03;;;;;;;-144.87;100.00;61487.56;4912914;29;20066;-79
2023/04/27 08:43:07;;;;;;;7.93;3.40;;;;;;;-144.87;100.00;61487.56;4923212;29;20056;-80
2023/04/27 08:45:34;;;;;;;8.27;4.22;;;;;;;-144.87;100.00;61487.56;4903698;29;20055;-82
2023/04/27 08:48:00;;;;;;;8.90;3.53;;;;;;;-144.87;100.00;61487.56;4929143;29;20058;-80
2023/04/27 08:50:27;;;;;;;12.93;4.22;;;;;;;-144.87;100.00;61487.56;4930800;29;20231;-80
2023/04/27 08:52:53;;;;;;;6.18;3.47;;;;;;;-144.87;100.00;61487.56;4931834;29;20039;-80
2023/04/27 08:55:20;;;;;;;8.80;4.30;;;;;;;-144.87;100.00;61487.56;4931754;29;20122;-79
2023/04/27 08:57:57;;;;;;;8.45;3.47;;;;;;;-144.87;100.00;61487.56;4950906;28;20050;-79
2023/04/27 09:00:24;;;;;;;5.38;3.33;;;;;;;-144.87;100.00;61487.56;4916723;29;20043;-80
2023/04/27 09:02:50;;;;;;;5.68;3.53;;;;;;;-144.87;100.00;61487.56;4897469;29;20040;-79
2023/04/27 09:05:21;;;;;;;9.63;5.38;;;;;;;-144.87;100.00;61487.56;4904343;29;20409;-79
2023/04/27 09:08:06;;;;;;;9.70;3.88;;;;;;;-144.87;100.00;61487.56;4900064;29;20785;-79
2023/04/27 09:10:46;;;;;;;6.38;3.72;;;;;;;-144.87;100.00;61487.56;4920190;29;20035;-79
2023/04/27 09:13:13;;;;;;;8.27;3.70;;;;;;;-144.87;100.00;61487.56;4935180;29;20039;-79
2023/04/27 09:15:45;;;;;;;8.85;3.92;;;;;;;-144.87;100.00;61487.56;4916258;29;20351;-80
2023/04/27 09:18:19;;;;;;;6.30;3.97;;;;;;;-144.87;100.00;61487.56;4919051;29;20038;-79
2023/04/27 09:20:50;;;;;;;12.60;3.97;;;;;;;-144.87;100.00;61487.56;4935641;29;20039;-79
2023/04/27 09:23:37;;;;;;;6.40;3.63;;;;;;;-144.87;100.00;61487.56;4932163;29;20174;-79
2023/04/27 09:26:07;;;;;;;7.00;3.63;;;;;;;-144.87;100.00;61487.56;4927417;29;20047;-79
2023/04/27 09:28:36;;;;;;;7.73;4.07;;;;;;;-144.87;100.00;61487.56;4935363;29;20402;-79
2023/04/27 09:31:03;;;;;;;8.35;4.88;;;;;;;-144.87;100.00;61487.56;4919409;29;20291;-80
2023/04/27 09:33:34;;;;;;;7.38;3.75;;;;;;;-144.87;100.00;61487.56;4936620;29;20043;-81
2023/04/27 09:36:03;;;;;;;7.85;4.05;;;;;;;-144.87;100.00;61487.56;4934470;29;20078;-79
2023/04/27 09:38:30;;;;;;;8.35;3.75;;;;;;;-144.87;100.00;61487.56;4915025;29;20056;-79
2023/04/27 09:40:57;;;;;;;7.88;3.55;;;;;;;-144.87;100.00;61487.56;4902435;29;20044;-80
2023/04/27 09:43:26;;;;;;;7.18;4.07;;;;;;;-144.87;100.00;61487.56;4917026;29;20032;-80
2023/04/27 09:45:53;;;;;;;8.23;3.83;;;;;;;-144.87;100.00;61487.56;4914447;29;20039;-79
2023/04/27 09:48:21;;;;;;;7.60;3.70;;;;;;;-144.87;100.00;61487.56;4907839;29;20092;-79
2023/04/27 09:50:49;;;;;;;10.15;3.95;;;;;;;-144.87;100.00;61487.56;4901418;29;20064;-80
2023/04/27 09:53:19;;;;;;;8.70;3.70;;;;;;;-144.87;100.00;61487.56;4933370;29;20384;-79
2023/04/27 09:56:07;;;;;;;8.52;4.00;;;;;;;-144.87;100.00;61487.56;4947598;28;20039;-83
2023/04/27 09:58:42;;;;;;;7.32;3.83;;;;;;;-144.87;100.00;61487.56;4946110;28;20035;-82
2023/04/27 10:01:29;;;;;;;10.90;3.90;;;;;;;-144.87;100.00;61487.56;4940599;28;20051;-80
2023/04/27 10:04:13;;;;;;;9.43;4.00;;;;;;;-144.87;100.00;61487.56;4913415;29;20040;-81
2023/04/27 10:07:01;;;;;;;9.48;4.18;;;;;;;-144.87;100.00;61487.56;4932780;29;20159;-81
2023/04/27 10:09:34;;;;;;;8.90;3.78;;;;;;;-144.87;100.00;61487.56;4934203;29;20039;-79
2023/04/27 10:12:15;;;;;;;9.55;4.10;;;;;;;-144.87;100.00;61487.56;4934705;29;20445;-79
2023/04/27 10:14:49;;;;;;;8.18;4.05;;;;;;;-144.87;100.00;61487.56;4933337;29;20430;-80
2023/04/27 10:17:16;;;;;;;7.97;3.72;;;;;;;-144.87;100.00;61487.56;4934275;29;20086;-81
2023/04/27 10:19:56;;;;;;;8.55;3.63;;;;;;;-144.87;100.00;61487.56;4932622;29;20080;-79
2023/04/27 10:22:23;;;;;;;7.78;3.83;;;;;;;-144.87;100.00;61487.56;4942050;29;20036;-80
2023/04/27 10:24:50;;;;;;;8.20;4.10;;;;;;;-144.87;100.00;61487.56;4933208;29;20454;-80
2023/04/27 10:27:24;;;;;;;8.80;3.80;;;;;;;-144.87;100.00;61487.56;4934103;29;20469;-79
2023/04/27 10:29:52;;;;;;;8.88;3.88;;;;;;;-144.87;100.00;61487.56;4934190;29;20131;-80
2023/04/27 10:32:23;;;;;;;9.35;4.18;;;;;;;-144.87;100.00;61487.56;4899331;29;20142;-81
2023/04/27 10:35:05;;;;;;;6.68;4.00;;;;;;;-144.87;100.00;61487.56;4911872;29;20043;-80
2023/04/27 10:38:07;;;;;;;6.53;4.03;;;;;;;-144.87;100.00;61487.56;4934116;29;20048;-80
2023/04/27 10:40:34;;;;;;;8.68;4.03;;;;;;;-144.87;100.00;61487.56;4917423;29;20126;-79
2023/04/27 10:43:16;;;;;;;6.78;3.95;;;;;;;-144.87;100.00;61487.56;4933164;29;20066;-79
2023/04/27 10:45:43;;;;;;;7.28;4.60;;;;;;;-144.87;100.00;61487.56;4917943;29;20042;-80
2023/04/27 10:48:15;;;;;;;6.78;4.32;;;;;;;-144.87;100.00;61487.56;4918030;29;20046;-80
2023/04/27 10:50:43;;;;;;;8.75;4.20;;;;;;;-144.87;100.00;61487.56;4917294;29;20118;-80
2023/04/27 10:53:10;;;;;;;7.80;4.30;;;;;;;-144.87;100.00;61487.56;4933994;29;20048;-80
2023/04/27 10:55:36;;;;;;;9.02;4.38;;;;;;;-144.87;100.00;61487.56;4918099;29;20063;-81
2023/04/27 10:58:03;;;;;;;6.45;4.00;;;;;;;-144.87;100.00;61487.56;4918648;29;20474;-80
2023/04/27 11:00:35;;;;;;;10.27;4.38;;;;;;;-144.87;100.00;61487.56;4935141;29;20379;-82
2023/04/27 11:03:21;;;;;;;8.23;4.00;;;;;;;-144.87;100.00;61487.56;4916994;29;20413;-80